Time;durP1;ratioP1;P1;durP2;ratioP2;P2;SDS_P1;SDS_P2;PMS_P1;PMS_P2;Temp;Humidity;BMP_temperature;BMP_pressure;BME280_temperature;BME280_humidity;BME280_pressure;Samples;Min_cycle;Max_cycle;Signal;HPM_P1;HPM_P2
2021/06/25 00:01:01;;;;;;;0.98;0.90;;;25.30;47.20;;;29.03;31.73;101546.06;5133433;28;20058;-49
2021/06/25 00:03:27;;;;;;;0.88;0.88;;;25.30;47.20;;;29.02;31.57;101544.38;5133408;28;20492;-54
2021/06/25 00:05:53;;;;;;;0.80;0.80;;;25.30;47.30;;;29.02;31.64;101544.38;5133268;28;20047;-53
2021/06/25 00:08:18;;;;;;;0.80;0.80;;;25.20;47.20;;;29.03;31.85;101543.38;5133404;27;20058;-50
2021/06/25 00:10:44;;;;;;;0.77;0.77;;;25.20;47.30;;;28.98;31.75;101532.16;5136752;28;20035;-53
2021/06/25 00:13:10;;;;;;;0.80;0.80;;;25.20;47.30;;;29.00;31.72;101539.13;5136752;28;20059;-55
2021/06/25 00:15:36;;;;;;;1.15;1.05;;;25.20;47.30;;;28.97;31.75;101527.78;5137136;28;20040;-47
2021/06/25 00:18:02;;;;;;;1.17;1.08;;;25.20;47.30;;;28.98;31.64;101535.69;5136755;28;20408;-52
2021/06/25 00:20:29;;;;;;;0.82;0.82;;;25.20;47.30;;;28.97;31.68;101539.41;5136818;28;20561;-51
2021/06/25 00:22:56;;;;;;;0.90;0.90;;;25.20;47.30;;;28.98;31.86;101529.47;5136747;28;20381;-49
2021/06/25 00:25:23;;;;;;;0.90;0.90;;;25.20;47.30;;;28.94;31.84;101531.56;5136791;28;20047;-48
2021/06/25 00:27:49;;;;;;;0.70;0.70;;;25.20;47.40;;;28.93;32.06;101527.16;5136655;28;20456;-51
2021/06/25 00:30:16;;;;;;;0.80;0.80;;;25.20;47.40;;;28.93;31.89;101537.09;5136758;28;20078;-49
2021/06/25 00:32:44;;;;;;;0.90;0.88;;;25.20;47.40;;;28.91;32.03;101534.53;5136555;28;20559;-51
2021/06/25 00:35:10;;;;;;;0.75;0.75;;;25.10;47.40;;;28.91;32.06;101541.75;5136561;28;20039;-52
2021/06/25 00:37:36;;;;;;;0.80;0.80;;;25.10;47.40;;;28.89;32.15;101536.50;5136491;28;20045;-51
2021/06/25 00:40:04;;;;;;;0.85;0.85;;;25.10;47.90;;;28.87;31.89;101533.09;5136746;28;20039;-51
2021/06/25 00:42:30;;;;;;;1.10;1.00;;;25.10;48.00;;;28.87;31.97;101543.00;5136747;28;20085;-51
2021/06/25 00:44:56;;;;;;;1.10;1.00;;;25.10;47.50;;;28.88;31.86;101542.84;5136880;28;20051;-51
2021/06/25 00:47:21;;;;;;;0.95;0.82;;;25.10;47.50;;;28.87;31.80;101546.56;5136370;28;20043;-53
2021/06/25 00:49:47;;;;;;;0.80;0.80;;;25.10;47.50;;;28.86;32.22;101536.75;5136837;28;20130;-48
2021/06/25 00:52:19;;;;;;;0.82;0.82;;;25.10;47.50;;;28.84;31.93;101536.03;5136327;28;20091;-54
2021/06/25 00:54:46;;;;;;;1.38;0.93;;;25.10;47.50;;;28.84;32.22;101533.34;5135862;28;20492;-52
2021/06/25 00:57:13;;;;;;;1.30;1.10;;;25.10;47.50;;;28.83;31.89;101545.97;5117878;28;20086;-52
2021/06/25 00:59:39;;;;;;;0.70;0.70;;;25.10;47.60;;;28.82;32.04;101546.94;5136123;28;20453;-49
2021/06/25 01:02:06;;;;;;;0.75;0.75;;;25.00;47.50;;;28.82;32.28;101546.09;5136480;28;20048;-51
2021/06/25 01:04:31;;;;;;;0.80;0.80;;;25.00;47.60;;;28.78;32.37;101547.31;5136218;28;20523;-52
2021/06/25 01:06:59;;;;;;;0.80;0.80;;;25.00;47.60;;;28.78;32.21;101550.84;5136152;28;20047;-52
2021/06/25 01:09:26;;;;;;;0.80;0.80;;;25.00;48.10;;;28.76;32.23;101544.75;5116213;28;20054;-54
2021/06/25 01:11:52;;;;;;;0.80;0.80;;;25.00;47.60;;;28.75;32.10;101545.75;5135569;28;20055;-49
2021/06/25 01:14:21;;;;;;;0.70;0.70;;;25.00;47.70;;;28.75;32.05;101548.44;5116144;28;20048;-51
2021/06/25 01:16:47;;;;;;;0.80;0.80;;;25.00;47.70;;;28.75;32.34;101552.97;5135534;28;20050;-55
2021/06/25 01:19:14;;;;;;;0.90;0.70;;;25.00;47.70;;;28.74;32.07;101553.97;5134946;27;20427;-52
2021/06/25 01:21:42;;;;;;;0.85;0.85;;;25.00;47.70;;;28.71;32.13;101555.06;5135480;28;20051;-54
2021/06/25 01:24:08;;;;;;;0.80;0.80;;;24.90;47.70;;;28.69;32.19;101558.88;5135823;28;20100;-54
2021/06/25 01:26:33;;;;;;;0.90;0.90;;;25.00;47.80;;;28.67;32.35;101550.06;5135732;28;20051;-53
2021/06/25 01:29:00;;;;;;;0.95;0.95;;;25.00;47.80;;;28.69;32.39;101554.34;5117294;28;20055;-51
2021/06/25 01:31:28;;;;;;;0.60;0.60;;;24.90;47.70;;;28.66;32.26;101553.75;5134897;28;20047;-50
2021/06/25 01:33:54;;;;;;;0.95;0.90;;;25.00;47.80;;;28.68;32.16;101551.78;5135605;28;20378;-52
2021/06/25 01:36:20;;;;;;;0.93;0.90;;;24.90;47.80;;;28.66;32.38;101551.91;5135936;28;20414;-51
2021/06/25 01:38:49;;;;;;;1.52;0.90;;;24.90;47.80;;;28.65;32.39;101547.50;5135471;28;20047;-51
2021/06/25 01:41:15;;;;;;;0.80;0.80;;;24.90;47.80;;;28.62;32.11;101535.16;5135429;28;20055;-54
2021/06/25 01:43:43;;;;;;;0.73;0.73;;;24.90;47.90;;;28.60;32.28;101533.59;5135822;28;20480;-52
2021/06/25 01:46:15;;;;;;;0.80;0.80;;;24.90;47.90;;;28.60;32.45;101528.19;5135369;28;20092;-49
2021/06/25 01:48:41;;;;;;;0.80;0.80;;;24.90;47.90;;;28.58;32.39;101527.47;5135695;28;20485;-54
2021/06/25 01:51:06;;;;;;;2.00;0.80;;;24.80;47.90;;;28.58;32.29;101533.72;5135590;28;20046;-54
2021/06/25 01:53:32;;;;;;;0.98;0.90;;;24.80;47.90;;;28.55;32.67;101530.41;5135241;28;20067;-50
2021/06/25 01:56:01;;;;;;;0.90;0.90;;;24.80;48.00;;;28.55;32.52;101531.28;5135596;28;20039;-53
2021/06/25 01:58:30;;;;;;;0.77;0.77;;;24.80;48.00;;;28.54;32.43;101528.72;5135281;28;20134;-53
2021/06/25 02:01:17;;;;;;;1.00;0.90;;;24.80;48.00;;;28.49;32.49;101533.63;5115254;28;20051;-53
2021/06/25 02:03:46;;;;;;;0.77;0.77;;;24.80;48.00;;;28.52;32.49;101544.09;5135110;28;20399;-51
2021/06/25 02:06:14;;;;;;;0.70;0.70;;;24.80;48.00;;;28.49;32.34;101547.91;5135259;28;20047;-53
2021/06/25 02:08:41;;;;;;;0.90;0.90;;;24.80;48.10;;;28.48;32.75;101532.75;5135621;28;20035;-49
2021/06/25 02:11:09;;;;;;;0.85;0.85;;;24.80;48.10;;;28.45;32.58;101527.63;5116334;28;20126;-52
2021/06/25 02:13:35;;;;;;;1.70;1.08;;;24.80;48.10;;;28.45;32.36;101536.56;5134843;28;20039;-51
2021/06/25 02:16:01;;;;;;;0.80;0.80;;;24.80;48.10;;;28.48;32.50;101548.03;5135240;28;20039;-47
2021/06/25 02:18:27;;;;;;;1.17;0.80;;;24.80;48.10;;;28.45;32.85;101544.63;5134921;28;20047;-51
2021/06/25 02:20:53;;;;;;;1.10;1.00;;;24.70;48.10;;;28.44;32.71;101545.59;5134874;28;20050;-51
2021/06/25 02:23:19;;;;;;;1.25;0.73;;;24.70;48.10;;;28.42;32.71;101530.59;5135179;28;20039;-54
2021/06/25 02:25:45;;;;;;;0.90;0.90;;;24.70;48.20;;;28.41;32.48;101523.50;5135295;28;20044;-53
2021/06/25 02:28:10;;;;;;;0.80;0.80;;;24.70;48.20;;;28.42;32.68;101523.38;5134598;28;20035;-50
2021/06/25 02:30:36;;;;;;;0.75;0.75;;;24.70;48.20;;;28.38;32.72;101515.66;5134913;28;20051;-54
2021/06/25 02:33:02;;;;;;;0.75;0.70;;;24.70;48.30;;;28.35;32.50;101511.41;5114491;28;20072;-53
2021/06/25 02:35:28;;;;;;;0.77;0.77;;;24.70;48.30;;;28.38;32.91;101529.97;5134661;28;20134;-54
2021/06/25 02:37:55;;;;;;;1.25;0.80;;;24.70;48.30;;;28.35;32.87;101521.31;5134602;28;20047;-52
2021/06/25 02:40:23;;;;;;;0.70;0.70;;;24.70;48.30;;;28.34;32.58;101530.38;5134444;28;20043;-51
2021/06/25 02:42:49;;;;;;;0.80;0.80;;;24.70;48.30;;;28.33;32.74;101528.66;5134699;28;20134;-50
2021/06/25 02:45:16;;;;;;;0.80;0.80;;;24.70;48.30;;;28.32;32.83;101521.56;5134846;28;20499;-49
2021/06/25 02:47:42;;;;;;;0.82;0.82;;;24.60;48.30;;;28.34;32.97;101533.06;5134731;28;20049;-51
2021/06/25 02:50:09;;;;;;;0.70;0.70;;;24.60;48.30;;;28.33;32.98;101528.66;5134645;28;20050;-50
2021/06/25 02:52:37;;;;;;;0.70;0.70;;;24.60;48.40;;;28.28;32.91;101519.16;5134522;28;20047;-51
2021/06/25 02:55:05;;;;;;;0.80;0.80;;;24.60;48.30;;;28.27;33.04;101512.03;5134457;28;20471;-48
2021/06/25 02:57:31;;;;;;;1.05;0.73;;;24.60;48.40;;;28.26;32.82;101510.34;5113758;28;20481;-46
2021/06/25 02:59:56;;;;;;;1.15;0.90;;;24.60;48.40;;;28.26;32.75;101496.03;5134129;28;20047;-47
2021/06/25 03:02:22;;;;;;;0.80;0.80;;;24.60;48.40;;;28.27;33.04;101498.59;5134239;28;20051;-48
2021/06/25 03:04:48;;;;;;;0.73;0.73;;;24.60;48.40;;;28.27;33.04;101489.69;5112805;28;20051;-50
2021/06/25 03:07:14;;;;;;;0.75;0.70;;;24.60;48.40;;;28.25;32.77;101484.44;5134428;28;20066;-48
2021/06/25 03:09:39;;;;;;;0.98;0.98;;;24.60;48.40;;;28.23;32.95;101469.41;5133967;28;20054;-48
2021/06/25 03:12:08;;;;;;;1.63;0.75;;;24.60;48.40;;;28.24;33.06;101471.13;5134126;28;20051;-46
2021/06/25 03:14:35;;;;;;;0.80;0.70;;;24.60;48.30;;;28.28;32.95;101470.75;5133977;28;20072;-48
2021/06/25 03:17:02;;;;;;;0.93;0.93;;;24.70;48.30;;;28.32;33.05;101476.72;5133974;28;20488;-47
2021/06/25 03:19:30;;;;;;;0.90;0.90;;;24.70;48.20;;;28.35;32.70;101473.78;5133856;28;20043;-52
2021/06/25 03:21:55;;;;;;;0.80;0.80;;;24.70;48.10;;;28.39;32.94;101474.34;5133966;28;20447;-51
2021/06/25 03:24:21;;;;;;;1.02;1.00;;;24.80;48.10;;;28.40;32.75;101476.03;5133965;28;20047;-52
2021/06/25 03:26:47;;;;;;;0.80;0.80;;;24.80;48.00;;;28.46;32.45;101479.06;5133853;28;20047;-50
2021/06/25 03:29:13;;;;;;;0.85;0.70;;;24.90;47.90;;;28.54;32.62;101482.97;5133771;28;20485;-51
2021/06/25 03:31:38;;;;;;;0.80;0.80;;;24.90;47.70;;;28.58;32.66;101473.66;5133388;28;20515;-51
2021/06/25 03:34:04;;;;;;;1.08;0.90;;;25.00;47.70;;;28.63;32.58;101474.13;5133970;28;20053;-51
2021/06/25 03:36:30;;;;;;;1.30;0.85;;;25.00;47.60;;;28.64;32.25;101465.09;5133688;28;20068;-47
2021/06/25 03:38:56;;;;;;;0.90;0.90;;;25.00;47.50;;;28.69;32.18;101465.53;5133976;28;20047;-50
2021/06/25 03:41:22;;;;;;;0.82;0.80;;;25.00;47.40;;;28.72;32.16;101467.97;5115264;28;20078;-49
2021/06/25 03:43:47;;;;;;;1.15;0.90;;;25.10;47.40;;;28.73;32.10;101477.75;5133767;27;20092;-47
2021/06/25 03:46:13;;;;;;;0.93;0.80;;;25.10;47.40;;;28.74;32.00;101479.44;5133480;28;20046;-52
2021/06/25 03:48:39;;;;;;;0.90;0.90;;;25.00;47.40;;;28.73;32.29;101468.81;5133260;28;20047;-47
2021/06/25 03:51:05;;;;;;;0.70;0.70;;;25.00;47.40;;;28.74;32.05;101473.22;5133308;28;20050;-50
2021/06/25 03:53:31;;;;;;;0.80;0.80;;;25.10;47.50;;;28.74;32.17;101476.75;5133532;28;20412;-53
2021/06/25 03:56:12;;;;;;;0.70;0.70;;;25.10;47.40;;;28.73;32.26;101472.34;5133836;28;20400;-48
2021/06/25 03:58:42;;;;;;;0.60;0.60;;;25.10;47.40;;;28.76;32.00;101474.78;5134060;28;20134;-50
2021/06/25 04:01:09;;;;;;;0.70;0.70;;;25.10;47.40;;;28.80;32.17;101478.94;5133432;28;20051;-47
2021/06/25 04:03:37;;;;;;;0.80;0.80;;;25.10;47.40;;;28.79;32.17;101474.53;5133673;28;20043;-51
2021/06/25 04:06:03;;;;;;;0.68;0.68;;;25.10;47.40;;;28.78;32.35;101475.50;5133308;28;20068;-47
2021/06/25 04:08:30;;;;;;;0.80;0.80;;;25.10;47.40;;;28.79;32.13;101481.75;5133371;28;20544;-49
2021/06/25 04:10:58;;;;;;;0.70;0.70;;;25.10;47.50;;;28.77;31.88;101479.19;5133562;28;20084;-52
2021/06/25 04:13:25;;;;;;;0.70;0.70;;;25.00;47.40;;;28.78;32.18;101483.56;5133088;28;20043;-46
2021/06/25 04:15:51;;;;;;;0.80;0.80;;;25.10;47.50;;;28.80;32.22;101480.75;5133260;28;20077;-46
2021/06/25 04:18:17;;;;;;;0.75;0.75;;;25.10;47.50;;;28.81;32.05;101485.16;5114727;28;20039;-47
2021/06/25 04:20:45;;;;;;;0.85;0.85;;;25.10;47.50;;;28.79;32.04;101482.59;5133211;28;20055;-47
2021/06/25 04:23:11;;;;;;;0.65;0.65;;;25.10;47.40;;;28.81;32.05;101485.16;5133190;28;20040;-45
2021/06/25 04:25:37;;;;;;;0.98;0.73;;;25.10;47.40;;;28.82;32.04;101490.41;5114920;28;20039;-48
2021/06/25 04:28:03;;;;;;;0.70;0.70;;;25.10;47.90;;;28.85;31.98;101491.97;5133082;28;20134;-49
2021/06/25 04:30:29;;;;;;;0.70;0.70;;;25.10;47.30;;;28.88;31.92;101489.03;5132962;28;20039;-48
2021/06/25 04:32:58;;;;;;;0.75;0.75;;;25.20;47.40;;;28.87;31.94;101476.56;5133216;28;20039;-49
2021/06/25 04:35:24;;;;;;;0.80;0.80;;;25.20;47.30;;;28.86;31.85;101474.84;5132939;28;20094;-45
2021/06/25 04:37:49;;;;;;;1.23;0.80;;;25.20;47.30;;;28.91;31.79;101474.47;5132785;28;20050;-48
2021/06/25 04:40:15;;;;;;;0.85;0.85;;;25.20;47.30;;;28.91;32.00;101474.47;5132967;28;20422;-46
2021/06/25 04:42:41;;;;;;;0.98;0.98;;;25.20;47.30;;;28.91;31.86;101475.31;5132708;28;20488;-50
2021/06/25 04:45:08;;;;;;;1.23;0.95;;;25.10;47.20;;;28.93;32.03;101473.31;5113772;28;20048;-48
2021/06/25 04:47:33;;;;;;;0.63;0.63;;;25.20;47.20;;;28.95;31.87;101468.69;5132825;28;20074;-47
2021/06/25 04:49:59;;;;;;;0.80;0.80;;;25.20;47.20;;;28.96;31.65;101461.44;5132623;28;20087;-50
2021/06/25 04:52:25;;;;;;;0.95;0.80;;;25.20;47.70;;;28.95;32.01;101446.28;5132920;28;20051;-48
2021/06/25 04:54:51;;;;;;;1.92;0.82;;;25.20;47.10;;;29.01;31.88;101451.13;5114850;28;20054;-47
2021/06/25 04:57:17;;;;;;;0.85;0.85;;;25.30;47.20;;;29.00;31.56;101444.91;5136353;28;20054;-46
2021/06/25 04:59:42;;;;;;;0.90;0.90;;;25.20;47.10;;;29.03;31.89;101441.06;5136131;28;20043;-50
2021/06/25 05:02:08;;;;;;;0.68;0.68;;;25.30;47.10;;;29.02;31.49;101439.38;5136060;28;20062;-52
2021/06/25 05:04:35;;;;;;;0.90;0.80;;;25.20;47.00;;;29.03;31.71;101438.38;5136235;28;20043;-46
2021/06/25 05:07:02;;;;;;;0.95;0.95;;;25.30;47.10;;;29.06;31.55;101448.03;5136560;28;20051;-45
2021/06/25 05:09:30;;;;;;;0.90;0.90;;;25.30;47.10;;;29.05;31.86;101443.63;5135823;28;20488;-48
2021/06/25 05:11:56;;;;;;;0.70;0.70;;;25.30;47.00;;;29.09;31.57;101445.09;5136184;28;20514;-47
2021/06/25 05:14:22;;;;;;;0.70;0.70;;;25.30;47.00;;;29.10;31.45;101450.34;5135927;28;20039;-50
2021/06/25 05:16:47;;;;;;;0.80;0.80;;;25.30;47.00;;;29.10;31.76;101453.03;5135781;28;20057;-52
2021/06/25 05:19:13;;;;;;;0.70;0.70;;;25.40;47.00;;;29.15;31.70;101458.00;5135797;28;20051;-53
2021/06/25 05:21:39;;;;;;;0.85;0.70;;;25.40;46.90;;;29.14;31.53;101450.91;5135632;28;20055;-50
2021/06/25 05:24:06;;;;;;;1.08;0.93;;;25.40;46.90;;;29.18;31.46;101455.06;5135709;28;20053;-52
2021/06/25 05:26:31;;;;;;;0.70;0.70;;;25.40;46.80;;;29.22;31.52;101453.81;5136025;28;20074;-46
2021/06/25 05:28:57;;;;;;;1.00;0.90;;;25.40;46.70;;;29.25;31.28;101458.91;5135661;28;20078;-53
2021/06/25 05:31:23;;;;;;;0.80;0.80;;;25.50;46.80;;;29.26;31.32;101467.88;5135698;28;20057;-49
2021/06/25 05:33:49;;;;;;;0.80;0.80;;;25.50;46.70;;;29.30;31.28;101469.28;5117030;28;20047;-51
2021/06/25 05:36:14;;;;;;;0.75;0.75;;;25.50;46.70;;;29.29;31.50;101476.53;5135893;28;20035;-50
2021/06/25 05:38:40;;;;;;;1.05;0.90;;;25.50;46.60;;;29.32;31.26;101472.69;5135607;28;20070;-47
2021/06/25 05:41:06;;;;;;;0.80;0.80;;;25.60;46.70;;;29.33;31.42;101477.94;5135490;28;20074;-53
2021/06/25 05:43:32;;;;;;;0.82;0.80;;;25.60;46.70;;;29.35;31.45;101475.13;5115577;28;20051;-49
2021/06/25 05:45:59;;;;;;;0.73;0.70;;;25.60;46.60;;;29.36;31.49;101477.69;5135596;28;20043;-52
2021/06/25 05:48:25;;;;;;;1.00;0.90;;;25.60;46.60;;;29.43;31.04;101477.16;5135748;28;20046;-49
2021/06/25 05:50:51;;;;;;;0.80;0.80;;;25.60;46.50;;;29.46;31.31;101479.56;5135227;28;20047;-50
2021/06/25 05:53:17;;;;;;;0.90;0.90;;;25.70;47.00;;;29.49;31.34;101482.84;5135279;28;20392;-50
2021/06/25 05:55:43;;;;;;;1.13;0.98;;;25.70;46.40;;;29.49;31.24;101482.84;5135360;28;20399;-50
2021/06/25 05:58:10;;;;;;;0.93;0.93;;;25.70;46.30;;;29.54;31.13;101479.75;5135241;28;20538;-47
2021/06/25 06:00:36;;;;;;;1.60;1.00;;;25.80;46.30;;;29.58;31.06;101483.00;5135805;28;20095;-51
2021/06/25 06:03:02;;;;;;;0.90;0.90;;;25.80;46.30;;;29.61;30.85;101480.88;5135476;28;20043;-48
2021/06/25 06:05:28;;;;;;;1.00;0.80;;;25.80;46.30;;;29.62;31.03;101470.94;5135086;27;20056;-53
2021/06/25 06:07:53;;;;;;;0.70;0.70;;;25.80;46.20;;;29.69;31.04;101483.75;5133650;28;20055;-53
2021/06/25 06:10:19;;;;;;;0.90;0.90;;;25.80;46.10;;;29.73;30.80;101487.84;5116025;28;20445;-48
2021/06/25 06:12:46;;;;;;;0.80;0.80;;;25.90;46.10;;;29.78;30.72;101492.03;5135195;28;20099;-52
2021/06/25 06:15:15;;;;;;;0.70;0.70;;;26.00;46.00;;;29.78;31.00;101492.88;5116652;28;20083;-51
2021/06/25 06:17:44;;;;;;;0.85;0.85;;;26.00;46.00;;;29.85;30.78;101494.00;5134848;28;20134;-52
2021/06/25 06:20:16;;;;;;;0.73;0.73;;;26.00;45.90;;;29.85;30.58;101490.47;5134935;28;20060;-53
2021/06/25 06:33:54;;;;;;;0.90;0.85;;;26.20;45.60;;;30.12;30.36;101508.69;5134681;28;20393;-48
2021/06/25 06:36:42;;;;;;;0.90;0.90;;;26.30;45.50;;;30.19;30.15;101506.25;5134664;28;20043;-49
2021/06/25 06:39:08;;;;;;;0.98;0.98;;;26.30;45.40;;;30.27;30.16;101504.59;5134657;28;20050;-47
2021/06/25 06:41:35;;;;;;;0.70;0.70;;;26.50;45.30;;;30.32;30.04;101511.41;5134555;28;20484;-50
2021/06/25 06:44:01;;;;;;;0.75;0.75;;;26.50;45.20;;;30.36;29.95;101507.44;5134332;28;20055;-46
2021/06/25 06:46:30;;;;;;;0.80;0.80;;;26.60;45.10;;;30.44;29.88;101507.63;5134276;28;20058;-50
2021/06/25 06:48:56;;;;;;;0.80;0.80;;;26.60;44.90;;;30.51;29.92;101500.66;5098272;28;20051;-51
2021/06/25 06:51:22;;;;;;;0.80;0.75;;;26.70;44.90;;;30.58;29.82;101501.75;5134874;28;20046;-47
2021/06/25 06:53:52;;;;;;;0.88;0.88;;;26.70;44.70;;;30.64;29.68;101503.91;5134346;28;20054;-47
2021/06/25 06:56:20;;;;;;;0.80;0.80;;;26.80;44.60;;;30.65;29.70;101492.09;5134942;28;20076;-47
2021/06/25 06:58:48;;;;;;;1.02;0.98;;;26.90;44.60;;;30.73;29.69;101493.22;5134179;28;20047;-50
2021/06/25 07:01:14;;;;;;;1.00;0.88;;;26.90;44.50;;;30.80;29.39;101503.28;5134063;28;20385;-48
2021/06/25 07:03:40;;;;;;;0.80;0.80;;;26.90;44.40;;;30.83;29.49;101500.31;5113857;28;20481;-47
2021/06/25 07:06:07;;;;;;;0.80;0.80;;;26.90;44.40;;;30.85;29.47;101505.56;5134230;28;20130;-49
2021/06/25 07:08:33;;;;;;;0.85;0.85;;;27.00;44.30;;;30.89;29.49;101503.41;5115485;28;20408;-52
2021/06/25 07:10:59;;;;;;;0.75;0.75;;;27.00;44.30;;;30.91;29.25;101505.00;5114899;28;20067;-52
2021/06/25 07:13:25;;;;;;;0.88;0.88;;;27.00;44.20;;;30.88;29.22;101499.03;5134060;28;20050;-49
2021/06/25 07:15:51;;;;;;;0.90;0.90;;;27.00;44.30;;;30.92;29.28;101503.13;5134349;28;20071;-50
2021/06/25 07:18:17;;;;;;;1.00;0.90;;;27.00;44.30;;;30.95;29.20;101502.88;5114888;27;20047;-51
2021/06/25 07:20:43;;;;;;;0.68;0.68;;;27.10;44.30;;;30.94;29.13;101490.31;5097679;28;20417;-51
2021/06/25 07:23:09;;;;;;;0.70;0.70;;;27.10;44.20;;;31.00;29.02;101498.72;5133871;28;20047;-48
2021/06/25 07:25:35;;;;;;;1.48;0.85;;;27.10;44.70;;;31.01;29.10;101497.75;5115711;28;20555;-52
2021/06/25 07:28:00;;;;;;;0.95;0.85;;;27.10;44.10;;;31.01;29.04;101492.34;5134143;28;20178;-49
2021/06/25 07:30:27;;;;;;;0.95;0.90;;;27.10;44.10;;;31.06;29.06;101505.41;5133747;28;20099;-49
2021/06/25 07:32:53;;;;;;;0.70;0.70;;;27.10;44.00;;;31.06;29.07;101501.84;5133927;28;20071;-48
2021/06/25 07:35:19;;;;;;;0.80;0.80;;;27.10;44.10;;;31.02;29.13;101503.97;5134080;28;20050;-54
2021/06/25 07:37:45;;;;;;;1.00;0.90;;;27.10;44.10;;;30.98;29.18;101505.28;5134199;28;20099;-49
2021/06/25 07:40:12;;;;;;;1.00;1.00;;;27.00;44.10;;;30.94;29.08;101495.72;5133620;28;20054;-47
2021/06/25 07:42:38;;;;;;;0.60;0.60;;;27.00;44.20;;;30.95;29.20;101495.63;5133557;28;20054;-50
2021/06/25 07:45:10;;;;;;;0.95;0.95;;;27.00;44.20;;;30.97;29.26;101496.34;5133562;28;20043;-50
2021/06/25 07:47:37;;;;;;;0.75;0.75;;;27.10;44.20;;;31.00;29.23;101496.03;5133502;28;20043;-48
2021/06/25 07:50:06;;;;;;;0.70;0.70;;;27.10;44.20;;;31.05;29.11;101495.59;5133410;28;20099;-47
2021/06/25 07:52:32;;;;;;;0.80;0.80;;;27.20;44.10;;;31.05;29.05;101489.34;5133356;28;20070;-52
2021/06/25 07:54:58;;;;;;;0.80;0.80;;;27.20;44.00;;;31.12;28.88;101494.00;5133254;28;20082;-50
2021/06/25 07:57:23;;;;;;;0.90;0.90;;;27.20;43.90;;;31.17;28.95;101501.66;5133316;28;20043;-48
2021/06/25 07:59:49;;;;;;;1.15;0.85;;;27.30;43.90;;;31.20;28.86;101499.53;5115255;28;20062;-48
2021/06/25 08:02:15;;;;;;;0.93;0.80;;;27.30;43.80;;;31.23;28.97;101495.69;5133853;28;20135;-49
2021/06/25 08:04:45;;;;;;;1.00;0.90;;;27.40;43.80;;;31.30;28.75;101493.25;5133332;28;20095;-46
2021/06/25 08:07:15;;;;;;;1.33;1.23;;;27.40;43.70;;;31.33;28.77;101493.78;5133709;28;20086;-50
2021/06/25 08:09:41;;;;;;;0.75;0.75;;;27.50;43.60;;;31.37;28.84;101488.94;5133029;28;20507;-50
2021/06/25 08:12:10;;;;;;;0.98;0.90;;;27.50;43.50;;;31.41;28.58;101493.06;5133187;28;20043;-49
2021/06/25 08:14:37;;;;;;;0.77;0.77;;;27.50;43.50;;;31.38;28.50;101480.69;5133708;28;20092;-46
2021/06/25 08:17:04;;;;;;;1.00;0.90;;;27.50;43.40;;;31.36;28.42;101489.94;5133181;28;20504;-47
2021/06/25 08:19:31;;;;;;;1.55;1.00;;;27.50;43.40;;;31.33;28.63;101485.69;5133188;28;20135;-47
2021/06/25 08:21:57;;;;;;;1.27;1.17;;;27.40;43.40;;;31.37;28.47;101488.94;5133208;28;20047;-51
2021/06/25 08:24:23;;;;;;;1.67;1.10;;;27.50;43.50;;;31.40;28.36;101485.94;5114522;28;21079;-49
2021/06/25 08:26:50;;;;;;;2.40;1.10;;;27.50;43.40;;;31.47;28.74;101491.59;5132855;28;20043;-48
2021/06/25 08:29:16;;;;;;;2.03;1.08;;;27.60;43.30;;;31.52;28.48;101486.63;5132829;27;20058;-49
2021/06/25 08:31:42;;;;;;;2.10;1.05;;;27.60;43.20;;;31.57;28.32;101495.13;5136221;28;20058;-50
2021/06/25 08:34:11;;;;;;;1.67;0.82;;;27.70;43.10;;;31.59;28.39;101485.00;5117419;28;20052;-47
2021/06/25 08:36:41;;;;;;;2.20;0.98;;;27.70;43.00;;;31.61;28.22;101491.13;5136666;28;20070;-49
2021/06/25 08:39:08;;;;;;;0.90;0.90;;;27.70;42.90;;;31.67;28.33;101489.66;5136500;28;20047;-49
2021/06/25 08:41:36;;;;;;;2.83;1.23;;;27.80;42.90;;;31.66;27.99;101482.56;5136729;28;20353;-50
2021/06/25 08:44:04;;;;;;;2.63;1.20;;;27.80;42.80;;;31.68;28.31;101483.28;5136713;28;20505;-48
2021/06/25 08:46:32;;;;;;;1.90;1.33;;;27.80;42.80;;;31.66;27.97;101477.16;5136277;28;20039;-52
2021/06/25 08:49:02;;;;;;;2.83;1.40;;;27.80;42.80;;;31.64;28.20;101484.56;5136313;28;20042;-51
2021/06/25 08:51:27;;;;;;;2.60;1.17;;;27.70;42.70;;;31.65;28.25;101479.00;5136630;28;20089;-47
2021/06/25 08:53:53;;;;;;;1.55;1.10;;;27.70;42.80;;;31.66;28.09;101474.44;5117849;28;20503;-50
2021/06/25 08:56:19;;;;;;;2.35;1.27;;;27.80;42.90;;;31.68;28.11;101478.72;5136497;28;20082;-49
2021/06/25 08:58:45;;;;;;;1.90;1.30;;;27.80;42.80;;;31.65;28.06;101468.19;5136038;28;20051;-51
2021/06/25 09:01:13;;;;;;;2.10;1.10;;;27.80;42.80;;;31.69;27.96;101479.56;5136131;28;20088;-51
2021/06/25 09:03:41;;;;;;;1.85;1.13;;;27.80;42.70;;;31.71;28.04;101472.13;5136082;28;20050;-51
2021/06/25 09:06:11;;;;;;;3.33;1.58;;;27.80;42.70;;;31.73;28.11;101470.16;5136151;28;20088;-51
2021/06/25 09:08:38;;;;;;;;;;;27.80;42.60;;;31.87;27.97;101474.19;5136274;28;20548;-50
2021/06/25 09:11:30;;;;;;;2.20;1.13;;;27.80;42.70;;;31.77;28.14;101464.25;5118071;28;19923;-50
2021/06/25 09:14:02;;;;;;;3.47;1.15;;;27.90;42.70;;;31.78;27.76;101462.44;5135887;28;20043;-50
2021/06/25 09:16:33;;;;;;;4.80;1.33;;;27.90;42.60;;;31.81;28.02;101475.66;5135685;28;20408;-51
2021/06/25 09:19:13;;;;;;;4.07;1.40;;;27.90;42.50;;;31.77;28.08;101469.66;5135736;28;20485;-51
2021/06/25 09:21:59;;;;;;;2.05;1.20;;;27.90;42.50;;;31.80;27.88;101475.81;5135666;28;20059;-50
2021/06/25 09:24:27;;;;;;;3.47;1.23;;;27.90;42.40;;;31.81;27.93;101482.88;5135597;28;20089;-58
2021/06/25 09:27:06;;;;;;;2.85;1.48;;;27.90;42.40;;;31.81;27.79;101482.88;5135629;28;20088;-48
2021/06/25 09:29:39;;;;;;;3.13;1.38;;;27.90;42.40;;;31.78;27.77;101473.25;5136030;28;20047;-48
2021/06/25 09:32:11;;;;;;;4.95;1.95;;;27.90;42.30;;;31.81;27.92;101477.47;5135790;28;20039;-51
2021/06/25 09:34:51;;;;;;;3.25;1.50;;;28.00;42.30;;;31.83;27.91;101475.50;5134622;28;20096;-49
2021/06/25 09:37:19;;;;;;;2.93;1.40;;;28.00;42.20;;;31.89;27.67;101482.97;5115611;28;20047;-51
2021/06/25 09:40:04;;;;;;;5.35;1.88;;;28.00;42.20;;;31.85;27.87;101478.91;5135573;28;20296;-49
2021/06/25 09:42:30;;;;;;;3.72;1.70;;;28.00;42.20;;;31.88;27.92;101481.31;5135490;27;20041;-53
2021/06/25 09:45:17;;;;;;;2.60;1.48;;;28.00;42.10;;;31.84;27.99;101483.44;5135384;28;20070;-51
2021/06/25 09:47:54;;;;;;;4.18;1.60;;;28.00;42.20;;;31.88;27.64;101478.59;5135138;28;20078;-46
2021/06/25 09:50:28;;;;;;;3.70;1.48;;;28.00;42.10;;;31.87;27.96;101477.72;5117467;28;20067;-46
2021/06/25 09:53:03;;;;;;;3.35;1.80;;;28.00;42.00;;;31.90;27.85;101490.94;5135416;28;20503;-53
2021/06/25 09:55:48;;;;;;;7.97;2.20;;;28.10;42.00;;;31.94;27.45;101488.78;5135219;28;20048;-51
2021/06/25 09:58:21;;;;;;;4.55;1.45;;;28.10;41.90;;;31.95;27.64;101487.78;5135899;28;20066;-53
2021/06/25 10:03:58;;;;;;;3.85;1.40;;;28.20;41.80;;;31.95;27.55;101485.09;5135318;28;20055;-47
2021/06/25 10:06:34;;;;;;;4.55;1.92;;;28.20;41.80;;;31.94;27.49;101484.25;5134928;28;20102;-49
2021/06/25 10:09:00;;;;;;;2.90;1.60;;;28.20;41.80;;;31.97;27.29;101483.06;5135190;28;20079;-50
2021/06/25 10:11:29;;;;;;;3.33;1.65;;;28.20;41.70;;;31.95;27.33;101485.09;5135038;28;20054;-52
2021/06/25 10:13:59;;;;;;;5.75;1.88;;;28.20;41.70;;;31.93;27.55;101476.28;5134997;28;20046;-52
2021/06/25 10:16:26;;;;;;;4.05;1.75;;;28.20;41.70;;;31.97;27.59;101476.81;5134818;28;20568;-51
2021/06/25 10:18:54;;;;;;;3.78;1.65;;;28.20;41.50;;;32.01;27.48;101478.19;5135022;28;20404;-51
2021/06/25 10:21:23;;;;;;;3.47;1.60;;;28.30;41.50;;;32.01;27.19;101473.66;5135045;28;20055;-44
2021/06/25 10:23:55;;;;;;;3.05;1.48;;;28.30;41.50;;;32.02;27.57;101467.22;5135147;28;20104;-50
2021/06/25 10:26:23;;;;;;;2.75;1.58;;;28.30;41.40;;;32.00;27.17;101466.53;5135208;28;20049;-49
2021/06/25 10:28:51;;;;;;;3.60;1.55;;;28.30;41.40;;;32.02;27.15;101472.63;5134984;28;20133;-47